We Are Flying But It's Windy!
We recommend you give our operations team a call to make sure that aircraft are flying today.

We recommend that you phone ahead before traveling
John Monaghan - Flight Operations: 0862486210
EIDW 271630Z 32013KT 9999 FEW025 BKN050 11/04 Q1020 NOSIG